Aviation Digital Data Service (ADDS)

Output produced by METARs form (0820 UTC 27 February 2020)
found at http://www.aviationweather.gov/metar/data/
 
METAR text: ZSSS 270800Z 11004MPS 060V140 CAVOK 13/03 Q1026 NOSIG
Conditions at: ZSSS (SHANGHAI/HONGQIA, CN) observed 0800 UTC 27 February 2020
Temperature: 13.0°C (55°F)
Dewpoint: 3.0°C (37°F) [RH = 51%]
Pressure (altimeter): 30.30 inches Hg (1026.0 mb)
Winds: from the ESE (110 degrees) at 9 MPH (8 knots; 4.1 m/s)
Visibility: 6 or more miles (10+ km)
Ceiling: ceiling and visibility are OK
Clouds: unknown
Weather: no significant weather observed at this time

METAR text: ZSSS 270730Z 12004MPS 070V150 CAVOK 13/03 Q1026 NOSIG
Conditions at: ZSSS (SHANGHAI/HONGQIA, CN) observed 0730 UTC 27 February 2020
Temperature: 13.0°C (55°F)
Dewpoint: 3.0°C (37°F) [RH = 51%]
Pressure (altimeter): 30.30 inches Hg (1026.0 mb)
Winds: from the ESE (120 degrees) at 9 MPH (8 knots; 4.1 m/s)
Visibility: 6 or more miles (10+ km)
Ceiling: ceiling and visibility are OK
Clouds: unknown
Weather: no significant weather observed at this time

METAR text: ZSSS 270700Z 12005MPS 070V160 CAVOK 13/03 Q1026 NOSIG
Conditions at: ZSSS (SHANGHAI/HONGQIA, CN) observed 0700 UTC 27 February 2020
Temperature: 13.0°C (55°F)
Dewpoint: 3.0°C (37°F) [RH = 51%]
Pressure (altimeter): 30.30 inches Hg (1026.0 mb)
Winds: from the ESE (120 degrees) at 12 MPH (10 knots; 5.1 m/s)
Visibility: 6 or more miles (10+ km)
Ceiling: ceiling and visibility are OK
Clouds: unknown
Weather: no significant weather observed at this time

METAR text: ZSSS 270630Z VRB03MPS CAVOK 14/03 Q1026 NOSIG
Conditions at: ZSSS (SHANGHAI/HONGQIA, CN) observed 0630 UTC 27 February 2020
Temperature: 14.0°C (57°F)
Dewpoint: 3.0°C (37°F) [RH = 47%]
Pressure (altimeter): 30.30 inches Hg (1026.0 mb)
Winds: variable direction winds at 7 MPH (6 knots; 3.1 m/s)
Visibility: 6 or more miles (10+ km)
Ceiling: ceiling and visibility are OK
Clouds: unknown
Weather: no significant weather observed at this time

METAR text: ZSSS 270600Z 06004MPS 010V130 CAVOK 14/03 Q1026 NOSIG
Conditions at: ZSSS (SHANGHAI/HONGQIA, CN) observed 0600 UTC 27 February 2020
Temperature: 14.0°C (57°F)
Dewpoint: 3.0°C (37°F) [RH = 47%]
Pressure (altimeter): 30.30 inches Hg (1026.0 mb)
Winds: from the ENE (60 degrees) at 9 MPH (8 knots; 4.1 m/s)
Visibility: 6 or more miles (10+ km)
Ceiling: ceiling and visibility are OK
Clouds: unknown
Weather: no significant weather observed at this time

METAR text: ZSSS 270530Z 06004MPS 030V100 CAVOK 14/03 Q1027 NOSIG
Conditions at: ZSSS (SHANGHAI/HONGQIA, CN) observed 0530 UTC 27 February 2020
Temperature: 14.0°C (57°F)
Dewpoint: 3.0°C (37°F) [RH = 47%]
Pressure (altimeter): 30.32 inches Hg (1027.0 mb)
Winds: from the ENE (60 degrees) at 9 MPH (8 knots; 4.1 m/s)
Visibility: 6 or more miles (10+ km)
Ceiling: ceiling and visibility are OK
Clouds: unknown
Weather: no significant weather observed at this time

METAR text: ZSSS 270500Z 08003MPS 030V150 CAVOK 14/03 Q1028 NOSIG
Conditions at: ZSSS (SHANGHAI/HONGQIA, CN) observed 0500 UTC 27 February 2020
Temperature: 14.0°C (57°F)
Dewpoint: 3.0°C (37°F) [RH = 47%]
Pressure (altimeter): 30.35 inches Hg (1028.0 mb)
Winds: from the E (80 degrees) at 7 MPH (6 knots; 3.1 m/s)
Visibility: 6 or more miles (10+ km)
Ceiling: ceiling and visibility are OK
Clouds: unknown
Weather: no significant weather observed at this time

METAR text: ZSSS 270430Z 09004MPS 030V140 CAVOK 14/04 Q1028 NOSIG
Conditions at: ZSSS (SHANGHAI/HONGQIA, CN) observed 0430 UTC 27 February 2020
Temperature: 14.0°C (57°F)
Dewpoint: 4.0°C (39°F) [RH = 51%]
Pressure (altimeter): 30.35 inches Hg (1028.0 mb)
Winds: from the E (90 degrees) at 9 MPH (8 knots; 4.1 m/s)
Visibility: 6 or more miles (10+ km)
Ceiling: ceiling and visibility are OK
Clouds: unknown
Weather: no significant weather observed at this time

METAR text: ZSSS 270400Z 03004MPS 360V070 CAVOK 13/03 Q1029 NOSIG
Conditions at: ZSSS (SHANGHAI/HONGQIA, CN) observed 0400 UTC 27 February 2020
Temperature: 13.0°C (55°F)
Dewpoint: 3.0°C (37°F) [RH = 51%]
Pressure (altimeter): 30.38 inches Hg (1029.0 mb)
Winds: from the NNE (30 degrees) at 9 MPH (8 knots; 4.1 m/s)
Visibility: 6 or more miles (10+ km)
Ceiling: ceiling and visibility are OK
Clouds: unknown
Weather: no significant weather observed at this time

METAR text: ZSSS 270330Z 05004MPS 020V120 9999 FEW026 13/04 Q1029 NOSIG
Conditions at: ZSSS (SHANGHAI/HONGQIA, CN) observed 0330 UTC 27 February 2020
Temperature: 13.0°C (55°F)
Dewpoint: 4.0°C (39°F) [RH = 54%]
Pressure (altimeter): 30.38 inches Hg (1029.0 mb)
Winds: from the NE (50 degrees) at 9 MPH (8 knots; 4.1 m/s)
Visibility: 6 or more miles (10+ km)
Ceiling: at least 12,000 feet AGL
Clouds: few clouds at 2600 feet AGL
Weather: no significant weather observed at this time

METAR text: ZSSS 270300Z 08004MPS 360V110 9999 FEW026 12/03 Q1029 NOSIG
Conditions at: ZSSS (SHANGHAI/HONGQIA, CN) observed 0300 UTC 27 February 2020
Temperature: 12.0°C (54°F)
Dewpoint: 3.0°C (37°F) [RH = 54%]
Pressure (altimeter): 30.38 inches Hg (1029.0 mb)
Winds: from the E (80 degrees) at 9 MPH (8 knots; 4.1 m/s)
Visibility: 6 or more miles (10+ km)
Ceiling: at least 12,000 feet AGL
Clouds: few clouds at 2600 feet AGL
Weather: no significant weather observed at this time

METAR text: ZSSS 270230Z 03004MPS 340V090 9999 FEW026 12/04 Q1029 NOSIG
Conditions at: ZSSS (SHANGHAI/HONGQIA, CN) observed 0230 UTC 27 February 2020
Temperature: 12.0°C (54°F)
Dewpoint: 4.0°C (39°F) [RH = 58%]
Pressure (altimeter): 30.38 inches Hg (1029.0 mb)
Winds: from the NNE (30 degrees) at 9 MPH (8 knots; 4.1 m/s)
Visibility: 6 or more miles (10+ km)
Ceiling: at least 12,000 feet AGL
Clouds: few clouds at 2600 feet AGL
Weather: no significant weather observed at this time

METAR text: ZSSS 270200Z 08003MPS 040V120 9999 FEW026 11/03 Q1029 NOSIG
Conditions at: ZSSS (SHANGHAI/HONGQIA, CN) observed 0200 UTC 27 February 2020
Temperature: 11.0°C (52°F)
Dewpoint: 3.0°C (37°F) [RH = 58%]
Pressure (altimeter): 30.38 inches Hg (1029.0 mb)
Winds: from the E (80 degrees) at 7 MPH (6 knots; 3.1 m/s)
Visibility: 6 or more miles (10+ km)
Ceiling: at least 12,000 feet AGL
Clouds: few clouds at 2600 feet AGL
Weather: no significant weather observed at this time

METAR text: ZSSS 270130Z 03004MPS 350V070 9999 FEW020 11/04 Q1030 NOSIG
Conditions at: ZSSS (SHANGHAI/HONGQIA, CN) observed 0130 UTC 27 February 2020
Temperature: 11.0°C (52°F)
Dewpoint: 4.0°C (39°F) [RH = 62%]
Pressure (altimeter): 30.41 inches Hg (1030.0 mb)
Winds: from the NNE (30 degrees) at 9 MPH (8 knots; 4.1 m/s)
Visibility: 6 or more miles (10+ km)
Ceiling: at least 12,000 feet AGL
Clouds: few clouds at 2000 feet AGL
Weather: no significant weather observed at this time

METAR text: ZSSS 270100Z 04004MPS 9999 FEW020 10/03 Q1030 NOSIG
Conditions at: ZSSS (SHANGHAI/HONGQIA, CN) observed 0100 UTC 27 February 2020
Temperature: 10.0°C (50°F)
Dewpoint: 3.0°C (37°F) [RH = 62%]
Pressure (altimeter): 30.41 inches Hg (1030.0 mb)
Winds: from the NE (40 degrees) at 9 MPH (8 knots; 4.1 m/s)
Visibility: 6 or more miles (10+ km)
Ceiling: at least 12,000 feet AGL
Clouds: few clouds at 2000 feet AGL
Weather: no significant weather observed at this time

METAR text: ZSSS 270030Z 04003MPS 360V080 9999 FEW020 09/04 Q1029 NOSIG
Conditions at: ZSSS (SHANGHAI/HONGQIA, CN) observed 0030 UTC 27 February 2020
Temperature: 9.0°C (48°F)
Dewpoint: 4.0°C (39°F) [RH = 71%]
Pressure (altimeter): 30.38 inches Hg (1029.0 mb)
Winds: from the NE (40 degrees) at 7 MPH (6 knots; 3.1 m/s)
Visibility: 6 or more miles (10+ km)
Ceiling: at least 12,000 feet AGL
Clouds: few clouds at 2000 feet AGL
Weather: no significant weather observed at this time

METAR text: ZSSS 270000Z 04004MPS 9999 FEW020 09/04 Q1029 NOSIG
Conditions at: ZSSS (SHANGHAI/HONGQIA, CN) observed 0000 UTC 27 February 2020
Temperature: 9.0°C (48°F)
Dewpoint: 4.0°C (39°F) [RH = 71%]
Pressure (altimeter): 30.38 inches Hg (1029.0 mb)
Winds: from the NE (40 degrees) at 9 MPH (8 knots; 4.1 m/s)
Visibility: 6 or more miles (10+ km)
Ceiling: at least 12,000 feet AGL
Clouds: few clouds at 2000 feet AGL
Weather: no significant weather observed at this time

METAR text: ZSSS 262330Z 03003MPS 9999 SCT020 08/04 Q1029 NOSIG
Conditions at: ZSSS (SHANGHAI/HONGQIA, CN) observed 2330 UTC 26 February 2020
Temperature: 8.0°C (46°F)
Dewpoint: 4.0°C (39°F) [RH = 76%]
Pressure (altimeter): 30.38 inches Hg (1029.0 mb)
Winds: from the NNE (30 degrees) at 7 MPH (6 knots; 3.1 m/s)
Visibility: 6 or more miles (10+ km)
Ceiling: at least 12,000 feet AGL
Clouds: scattered clouds at 2000 feet AGL
Weather: no significant weather observed at this time

METAR text: ZSSS 262300Z 04003MPS 9999 BKN020 07/03 Q1029 NOSIG
Conditions at: ZSSS (SHANGHAI/HONGQIA, CN) observed 2300 UTC 26 February 2020
Temperature: 7.0°C (45°F)
Dewpoint: 3.0°C (37°F) [RH = 76%]
Pressure (altimeter): 30.38 inches Hg (1029.0 mb)
Winds: from the NE (40 degrees) at 7 MPH (6 knots; 3.1 m/s)
Visibility: 6 or more miles (10+ km)
Ceiling: 2000 feet AGL
Clouds: broken clouds at 2000 feet AGL
Weather: no significant weather observed at this time

METAR text: ZSSS 262230Z 04004MPS 9999 BKN020 07/03 Q1029 NOSIG
Conditions at: ZSSS (SHANGHAI/HONGQIA, CN) observed 2230 UTC 26 February 2020
Temperature: 7.0°C (45°F)
Dewpoint: 3.0°C (37°F) [RH = 76%]
Pressure (altimeter): 30.38 inches Hg (1029.0 mb)
Winds: from the NE (40 degrees) at 9 MPH (8 knots; 4.1 m/s)
Visibility: 6 or more miles (10+ km)
Ceiling: 2000 feet AGL
Clouds: broken clouds at 2000 feet AGL
Weather: no significant weather observed at this time

METAR text: ZSSS 262200Z 04004MPS 9999 BKN020 08/04 Q1028 NOSIG
Conditions at: ZSSS (SHANGHAI/HONGQIA, CN) observed 2200 UTC 26 February 2020
Temperature: 8.0°C (46°F)
Dewpoint: 4.0°C (39°F) [RH = 76%]
Pressure (altimeter): 30.35 inches Hg (1028.0 mb)
Winds: from the NE (40 degrees) at 9 MPH (8 knots; 4.1 m/s)
Visibility: 6 or more miles (10+ km)
Ceiling: 2000 feet AGL
Clouds: broken clouds at 2000 feet AGL
Weather: no significant weather observed at this time

METAR text: ZSSS 262130Z 02005MPS 9999 BKN020 08/03 Q1028 NOSIG
Conditions at: ZSSS (SHANGHAI/HONGQIA, CN) observed 2130 UTC 26 February 2020
Temperature: 8.0°C (46°F)
Dewpoint: 3.0°C (37°F) [RH = 71%]
Pressure (altimeter): 30.35 inches Hg (1028.0 mb)
Winds: from the NNE (20 degrees) at 12 MPH (10 knots; 5.1 m/s)
Visibility: 6 or more miles (10+ km)
Ceiling: 2000 feet AGL
Clouds: broken clouds at 2000 feet AGL
Weather: no significant weather observed at this time

METAR text: ZSSS 262100Z 03004MPS 9999 BKN020 08/03 Q1028 NOSIG
Conditions at: ZSSS (SHANGHAI/HONGQIA, CN) observed 2100 UTC 26 February 2020
Temperature: 8.0°C (46°F)
Dewpoint: 3.0°C (37°F) [RH = 71%]
Pressure (altimeter): 30.35 inches Hg (1028.0 mb)
Winds: from the NNE (30 degrees) at 9 MPH (8 knots; 4.1 m/s)
Visibility: 6 or more miles (10+ km)
Ceiling: 2000 feet AGL
Clouds: broken clouds at 2000 feet AGL
Weather: no significant weather observed at this time

METAR text: ZSSS 262030Z 05002MPS 010V070 9999 BKN020 08/04 Q1028 NOSIG
Conditions at: ZSSS (SHANGHAI/HONGQIA, CN) observed 2030 UTC 26 February 2020
Temperature: 8.0°C (46°F)
Dewpoint: 4.0°C (39°F) [RH = 76%]
Pressure (altimeter): 30.35 inches Hg (1028.0 mb)
Winds: from the NE (50 degrees) at 5 MPH (4 knots; 2.1 m/s)
Visibility: 6 or more miles (10+ km)
Ceiling: 2000 feet AGL
Clouds: broken clouds at 2000 feet AGL
Weather: no significant weather observed at this time

METAR text: ZSSS 262000Z 05004MPS 9999 BKN020 08/04 Q1028 NOSIG
Conditions at: ZSSS (SHANGHAI/HONGQIA, CN) observed 2000 UTC 26 February 2020
Temperature: 8.0°C (46°F)
Dewpoint: 4.0°C (39°F) [RH = 76%]
Pressure (altimeter): 30.35 inches Hg (1028.0 mb)
Winds: from the NE (50 degrees) at 9 MPH (8 knots; 4.1 m/s)
Visibility: 6 or more miles (10+ km)
Ceiling: 2000 feet AGL
Clouds: broken clouds at 2000 feet AGL
Weather: no significant weather observed at this time

METAR text: ZSSS 261930Z 05003MPS 9999 BKN020 08/04 Q1028 NOSIG
Conditions at: ZSSS (SHANGHAI/HONGQIA, CN) observed 1930 UTC 26 February 2020
Temperature: 8.0°C (46°F)
Dewpoint: 4.0°C (39°F) [RH = 76%]
Pressure (altimeter): 30.35 inches Hg (1028.0 mb)
Winds: from the NE (50 degrees) at 7 MPH (6 knots; 3.1 m/s)
Visibility: 6 or more miles (10+ km)
Ceiling: 2000 feet AGL
Clouds: broken clouds at 2000 feet AGL
Weather: no significant weather observed at this time

METAR text: ZSSS 261900Z 03005MPS 9999 BKN020 08/04 Q1028 NOSIG
Conditions at: ZSSS (SHANGHAI/HONGQIA, CN) observed 1900 UTC 26 February 2020
Temperature: 8.0°C (46°F)
Dewpoint: 4.0°C (39°F) [RH = 76%]
Pressure (altimeter): 30.35 inches Hg (1028.0 mb)
Winds: from the NNE (30 degrees) at 12 MPH (10 knots; 5.1 m/s)
Visibility: 6 or more miles (10+ km)
Ceiling: 2000 feet AGL
Clouds: broken clouds at 2000 feet AGL
Weather: no significant weather observed at this time

METAR text: ZSSS 261830Z 03006MPS 9999 BKN020 08/04 Q1028 NOSIG
Conditions at: ZSSS (SHANGHAI/HONGQIA, CN) observed 1830 UTC 26 February 2020
Temperature: 8.0°C (46°F)
Dewpoint: 4.0°C (39°F) [RH = 76%]
Pressure (altimeter): 30.35 inches Hg (1028.0 mb)
Winds: from the NNE (30 degrees) at 14 MPH (12 knots; 6.2 m/s)
Visibility: 6 or more miles (10+ km)
Ceiling: 2000 feet AGL
Clouds: broken clouds at 2000 feet AGL
Weather: no significant weather observed at this time

METAR text: ZSSS 261800Z 04005MPS 9999 BKN020 09/04 Q1028 NOSIG
Conditions at: ZSSS (SHANGHAI/HONGQIA, CN) observed 1800 UTC 26 February 2020
Temperature: 9.0°C (48°F)
Dewpoint: 4.0°C (39°F) [RH = 71%]
Pressure (altimeter): 30.35 inches Hg (1028.0 mb)
Winds: from the NE (40 degrees) at 12 MPH (10 knots; 5.1 m/s)
Visibility: 6 or more miles (10+ km)
Ceiling: 2000 feet AGL
Clouds: broken clouds at 2000 feet AGL
Weather: no significant weather observed at this time

METAR text: ZSSS 261730Z 05005MPS 9999 BKN020 08/04 Q1028 NOSIG
Conditions at: ZSSS (SHANGHAI/HONGQIA, CN) observed 1730 UTC 26 February 2020
Temperature: 8.0°C (46°F)
Dewpoint: 4.0°C (39°F) [RH = 76%]
Pressure (altimeter): 30.35 inches Hg (1028.0 mb)
Winds: from the NE (50 degrees) at 12 MPH (10 knots; 5.1 m/s)
Visibility: 6 or more miles (10+ km)
Ceiling: 2000 feet AGL
Clouds: broken clouds at 2000 feet AGL
Weather: no significant weather observed at this time

METAR text: ZSSS 261700Z 02005MPS 9999 BKN020 09/04 Q1028 NOSIG
Conditions at: ZSSS (SHANGHAI/HONGQIA, CN) observed 1700 UTC 26 February 2020
Temperature: 9.0°C (48°F)
Dewpoint: 4.0°C (39°F) [RH = 71%]
Pressure (altimeter): 30.35 inches Hg (1028.0 mb)
Winds: from the NNE (20 degrees) at 12 MPH (10 knots; 5.1 m/s)
Visibility: 6 or more miles (10+ km)
Ceiling: 2000 feet AGL
Clouds: broken clouds at 2000 feet AGL
Weather: no significant weather observed at this time

METAR text: ZSSS 261630Z 02006MPS 9999 BKN020 09/04 Q1029 NOSIG
Conditions at: ZSSS (SHANGHAI/HONGQIA, CN) observed 1630 UTC 26 February 2020
Temperature: 9.0°C (48°F)
Dewpoint: 4.0°C (39°F) [RH = 71%]
Pressure (altimeter): 30.38 inches Hg (1029.0 mb)
Winds: from the NNE (20 degrees) at 14 MPH (12 knots; 6.2 m/s)
Visibility: 6 or more miles (10+ km)
Ceiling: 2000 feet AGL
Clouds: broken clouds at 2000 feet AGL
Weather: no significant weather observed at this time

METAR text: ZSSS 261600Z 02006MPS 9999 BKN020 09/04 Q1029 NOSIG
Conditions at: ZSSS (SHANGHAI/HONGQIA, CN) observed 1600 UTC 26 February 2020
Temperature: 9.0°C (48°F)
Dewpoint: 4.0°C (39°F) [RH = 71%]
Pressure (altimeter): 30.38 inches Hg (1029.0 mb)
Winds: from the NNE (20 degrees) at 14 MPH (12 knots; 6.2 m/s)
Visibility: 6 or more miles (10+ km)
Ceiling: 2000 feet AGL
Clouds: broken clouds at 2000 feet AGL
Weather: no significant weather observed at this time

METAR text: ZSSS 261530Z 03006MPS 9999 BKN020 09/05 Q1029 NOSIG
Conditions at: ZSSS (SHANGHAI/HONGQIA, CN) observed 1530 UTC 26 February 2020
Temperature: 9.0°C (48°F)
Dewpoint: 5.0°C (41°F) [RH = 76%]
Pressure (altimeter): 30.38 inches Hg (1029.0 mb)
Winds: from the NNE (30 degrees) at 14 MPH (12 knots; 6.2 m/s)
Visibility: 6 or more miles (10+ km)
Ceiling: 2000 feet AGL
Clouds: broken clouds at 2000 feet AGL
Weather: no significant weather observed at this time

METAR text: ZSSS 261500Z 05005MPS 9999 BKN020 09/05 Q1029 NOSIG
Conditions at: ZSSS (SHANGHAI/HONGQIA, CN) observed 1500 UTC 26 February 2020
Temperature: 9.0°C (48°F)
Dewpoint: 5.0°C (41°F) [RH = 76%]
Pressure (altimeter): 30.38 inches Hg (1029.0 mb)
Winds: from the NE (50 degrees) at 12 MPH (10 knots; 5.1 m/s)
Visibility: 6 or more miles (10+ km)
Ceiling: 2000 feet AGL
Clouds: broken clouds at 2000 feet AGL
Weather: no significant weather observed at this time

METAR text: ZSSS 261430Z 03005MPS 9999 BKN020 09/05 Q1029 NOSIG
Conditions at: ZSSS (SHANGHAI/HONGQIA, CN) observed 1430 UTC 26 February 2020
Temperature: 9.0°C (48°F)
Dewpoint: 5.0°C (41°F) [RH = 76%]
Pressure (altimeter): 30.38 inches Hg (1029.0 mb)
Winds: from the NNE (30 degrees) at 12 MPH (10 knots; 5.1 m/s)
Visibility: 6 or more miles (10+ km)
Ceiling: 2000 feet AGL
Clouds: broken clouds at 2000 feet AGL
Weather: no significant weather observed at this time

METAR text: ZSSS 261400Z 04006MPS 9999 BKN020 10/05 Q1029 NOSIG
Conditions at: ZSSS (SHANGHAI/HONGQIA, CN) observed 1400 UTC 26 February 2020
Temperature: 10.0°C (50°F)
Dewpoint: 5.0°C (41°F) [RH = 71%]
Pressure (altimeter): 30.38 inches Hg (1029.0 mb)
Winds: from the NE (40 degrees) at 14 MPH (12 knots; 6.2 m/s)
Visibility: 6 or more miles (10+ km)
Ceiling: 2000 feet AGL
Clouds: broken clouds at 2000 feet AGL
Weather: no significant weather observed at this time

METAR text: ZSSS 261330Z 03004MPS 9999 BKN020 10/05 Q1029 NOSIG
Conditions at: ZSSS (SHANGHAI/HONGQIA, CN) observed 1330 UTC 26 February 2020
Temperature: 10.0°C (50°F)
Dewpoint: 5.0°C (41°F) [RH = 71%]
Pressure (altimeter): 30.38 inches Hg (1029.0 mb)
Winds: from the NNE (30 degrees) at 9 MPH (8 knots; 4.1 m/s)
Visibility: 6 or more miles (10+ km)
Ceiling: 2000 feet AGL
Clouds: broken clouds at 2000 feet AGL
Weather: no significant weather observed at this time

METAR text: ZSSS 261300Z 03005MPS 9999 BKN020 10/05 Q1029 NOSIG
Conditions at: ZSSS (SHANGHAI/HONGQIA, CN) observed 1300 UTC 26 February 2020
Temperature: 10.0°C (50°F)
Dewpoint: 5.0°C (41°F) [RH = 71%]
Pressure (altimeter): 30.38 inches Hg (1029.0 mb)
Winds: from the NNE (30 degrees) at 12 MPH (10 knots; 5.1 m/s)
Visibility: 6 or more miles (10+ km)
Ceiling: 2000 feet AGL
Clouds: broken clouds at 2000 feet AGL
Weather: no significant weather observed at this time

METAR text: ZSSS 261230Z 02006MPS 9999 BKN020 10/05 Q1028 NOSIG
Conditions at: ZSSS (SHANGHAI/HONGQIA, CN) observed 1230 UTC 26 February 2020
Temperature: 10.0°C (50°F)
Dewpoint: 5.0°C (41°F) [RH = 71%]
Pressure (altimeter): 30.35 inches Hg (1028.0 mb)
Winds: from the NNE (20 degrees) at 14 MPH (12 knots; 6.2 m/s)
Visibility: 6 or more miles (10+ km)
Ceiling: 2000 feet AGL
Clouds: broken clouds at 2000 feet AGL
Weather: no significant weather observed at this time

METAR text: ZSSS 261200Z 02006MPS 9999 BKN020 10/05 Q1028 NOSIG
Conditions at: ZSSS (SHANGHAI/HONGQIA, CN) observed 1200 UTC 26 February 2020
Temperature: 10.0°C (50°F)
Dewpoint: 5.0°C (41°F) [RH = 71%]
Pressure (altimeter): 30.35 inches Hg (1028.0 mb)
Winds: from the NNE (20 degrees) at 14 MPH (12 knots; 6.2 m/s)
Visibility: 6 or more miles (10+ km)
Ceiling: 2000 feet AGL
Clouds: broken clouds at 2000 feet AGL
Weather: no significant weather observed at this time

METAR text: ZSSS 261130Z 02006MPS 9999 BKN020 10/05 Q1028 NOSIG
Conditions at: ZSSS (SHANGHAI/HONGQIA, CN) observed 1130 UTC 26 February 2020
Temperature: 10.0°C (50°F)
Dewpoint: 5.0°C (41°F) [RH = 71%]
Pressure (altimeter): 30.35 inches Hg (1028.0 mb)
Winds: from the NNE (20 degrees) at 14 MPH (12 knots; 6.2 m/s)
Visibility: 6 or more miles (10+ km)
Ceiling: 2000 feet AGL
Clouds: broken clouds at 2000 feet AGL
Weather: no significant weather observed at this time

METAR text: ZSSS 261100Z 03006MPS 9999 BKN020 10/06 Q1027 NOSIG
Conditions at: ZSSS (SHANGHAI/HONGQIA, CN) observed 1100 UTC 26 February 2020
Temperature: 10.0°C (50°F)
Dewpoint: 6.0°C (43°F) [RH = 76%]
Pressure (altimeter): 30.32 inches Hg (1027.0 mb)
Winds: from the NNE (30 degrees) at 14 MPH (12 knots; 6.2 m/s)
Visibility: 6 or more miles (10+ km)
Ceiling: 2000 feet AGL
Clouds: broken clouds at 2000 feet AGL
Weather: no significant weather observed at this time

METAR text: ZSSS 261030Z 03005MPS 9999 BKN020 10/06 Q1027 NOSIG
Conditions at: ZSSS (SHANGHAI/HONGQIA, CN) observed 1030 UTC 26 February 2020
Temperature: 10.0°C (50°F)
Dewpoint: 6.0°C (43°F) [RH = 76%]
Pressure (altimeter): 30.32 inches Hg (1027.0 mb)
Winds: from the NNE (30 degrees) at 12 MPH (10 knots; 5.1 m/s)
Visibility: 6 or more miles (10+ km)
Ceiling: 2000 feet AGL
Clouds: broken clouds at 2000 feet AGL
Weather: no significant weather observed at this time

METAR text: ZSSS 261000Z 02006MPS 9999 BKN020 10/06 Q1027 NOSIG
Conditions at: ZSSS (SHANGHAI/HONGQIA, CN) observed 1000 UTC 26 February 2020
Temperature: 10.0°C (50°F)
Dewpoint: 6.0°C (43°F) [RH = 76%]
Pressure (altimeter): 30.32 inches Hg (1027.0 mb)
Winds: from the NNE (20 degrees) at 14 MPH (12 knots; 6.2 m/s)
Visibility: 6 or more miles (10+ km)
Ceiling: 2000 feet AGL
Clouds: broken clouds at 2000 feet AGL
Weather: no significant weather observed at this time

METAR text: ZSSS 260930Z 02006MPS 9999 BKN020 11/06 Q1026 NOSIG
Conditions at: ZSSS (SHANGHAI/HONGQIA, CN) observed 0930 UTC 26 February 2020
Temperature: 11.0°C (52°F)
Dewpoint: 6.0°C (43°F) [RH = 71%]
Pressure (altimeter): 30.30 inches Hg (1026.0 mb)
Winds: from the NNE (20 degrees) at 14 MPH (12 knots; 6.2 m/s)
Visibility: 6 or more miles (10+ km)
Ceiling: 2000 feet AGL
Clouds: broken clouds at 2000 feet AGL
Weather: no significant weather observed at this time

METAR text: ZSSS 260900Z 02006MPS 9999 BKN020 11/06 Q1026 NOSIG
Conditions at: ZSSS (SHANGHAI/HONGQIA, CN) observed 0900 UTC 26 February 2020
Temperature: 11.0°C (52°F)
Dewpoint: 6.0°C (43°F) [RH = 71%]
Pressure (altimeter): 30.30 inches Hg (1026.0 mb)
Winds: from the NNE (20 degrees) at 14 MPH (12 knots; 6.2 m/s)
Visibility: 6 or more miles (10+ km)
Ceiling: 2000 feet AGL
Clouds: broken clouds at 2000 feet AGL
Weather: no significant weather observed at this time

METAR text: ZSSS 260830Z 01007MPS 9999 BKN020 11/06 Q1026 NOSIG
Conditions at: ZSSS (SHANGHAI/HONGQIA, CN) observed 0830 UTC 26 February 2020
Temperature: 11.0°C (52°F)
Dewpoint: 6.0°C (43°F) [RH = 71%]
Pressure (altimeter): 30.30 inches Hg (1026.0 mb)
Winds: from the N (10 degrees) at 16 MPH (14 knots; 7.2 m/s)
Visibility: 6 or more miles (10+ km)
Ceiling: 2000 feet AGL
Clouds: broken clouds at 2000 feet AGL
Weather: no significant weather observed at this time

METAR text: ZSSS 260800Z 01006MPS 9999 BKN020 11/06 Q1025 NOSIG
Conditions at: ZSSS (SHANGHAI/HONGQIA, CN) observed 0800 UTC 26 February 2020
Temperature: 11.0°C (52°F)
Dewpoint: 6.0°C (43°F) [RH = 71%]
Pressure (altimeter): 30.27 inches Hg (1025.0 mb)
Winds: from the N (10 degrees) at 14 MPH (12 knots; 6.2 m/s)
Visibility: 6 or more miles (10+ km)
Ceiling: 2000 feet AGL
Clouds: broken clouds at 2000 feet AGL
Weather: no significant weather observed at this time

METAR text: ZSSS 260730Z 03005MPS 9999 BKN020 11/06 Q1025 NOSIG
Conditions at: ZSSS (SHANGHAI/HONGQIA, CN) observed 0730 UTC 26 February 2020
Temperature: 11.0°C (52°F)
Dewpoint: 6.0°C (43°F) [RH = 71%]
Pressure (altimeter): 30.27 inches Hg (1025.0 mb)
Winds: from the NNE (30 degrees) at 12 MPH (10 knots; 5.1 m/s)
Visibility: 6 or more miles (10+ km)
Ceiling: 2000 feet AGL
Clouds: broken clouds at 2000 feet AGL
Weather: no significant weather observed at this time

METAR text: ZSSS 260700Z 02005MPS 9999 BKN020 11/06 Q1025 NOSIG
Conditions at: ZSSS (SHANGHAI/HONGQIA, CN) observed 0700 UTC 26 February 2020
Temperature: 11.0°C (52°F)
Dewpoint: 6.0°C (43°F) [RH = 71%]
Pressure (altimeter): 30.27 inches Hg (1025.0 mb)
Winds: from the NNE (20 degrees) at 12 MPH (10 knots; 5.1 m/s)
Visibility: 6 or more miles (10+ km)
Ceiling: 2000 feet AGL
Clouds: broken clouds at 2000 feet AGL
Weather: no significant weather observed at this time

METAR text: ZSSS 260630Z 04006MPS 9999 BKN020 11/06 Q1025 NOSIG
Conditions at: ZSSS (SHANGHAI/HONGQIA, CN) observed 0630 UTC 26 February 2020
Temperature: 11.0°C (52°F)
Dewpoint: 6.0°C (43°F) [RH = 71%]
Pressure (altimeter): 30.27 inches Hg (1025.0 mb)
Winds: from the NE (40 degrees) at 14 MPH (12 knots; 6.2 m/s)
Visibility: 6 or more miles (10+ km)
Ceiling: 2000 feet AGL
Clouds: broken clouds at 2000 feet AGL
Weather: no significant weather observed at this time

METAR text: ZSSS 260600Z 03006MPS 9999 BKN020 11/06 Q1025 NOSIG
Conditions at: ZSSS (SHANGHAI/HONGQIA, CN) observed 0600 UTC 26 February 2020
Temperature: 11.0°C (52°F)
Dewpoint: 6.0°C (43°F) [RH = 71%]
Pressure (altimeter): 30.27 inches Hg (1025.0 mb)
Winds: from the NNE (30 degrees) at 14 MPH (12 knots; 6.2 m/s)
Visibility: 6 or more miles (10+ km)
Ceiling: 2000 feet AGL
Clouds: broken clouds at 2000 feet AGL
Weather: no significant weather observed at this time

METAR text: ZSSS 260530Z 04005MPS 020V080 9999 BKN020 11/07 Q1025 NOSIG
Conditions at: ZSSS (SHANGHAI/HONGQIA, CN) observed 0530 UTC 26 February 2020
Temperature: 11.0°C (52°F)
Dewpoint: 7.0°C (45°F) [RH = 76%]
Pressure (altimeter): 30.27 inches Hg (1025.0 mb)
Winds: from the NE (40 degrees) at 12 MPH (10 knots; 5.1 m/s)
Visibility: 6 or more miles (10+ km)
Ceiling: 2000 feet AGL
Clouds: broken clouds at 2000 feet AGL
Weather: no significant weather observed at this time

METAR text: ZSSS 260500Z 03005MPS 9999 BKN016 11/06 Q1025 NOSIG
Conditions at: ZSSS (SHANGHAI/HONGQIA, CN) observed 0500 UTC 26 February 2020
Temperature: 11.0°C (52°F)
Dewpoint: 6.0°C (43°F) [RH = 71%]
Pressure (altimeter): 30.27 inches Hg (1025.0 mb)
Winds: from the NNE (30 degrees) at 12 MPH (10 knots; 5.1 m/s)
Visibility: 6 or more miles (10+ km)
Ceiling: 1600 feet AGL
Clouds: broken clouds at 1600 feet AGL
Weather: no significant weather observed at this time

METAR text: ZSSS 260430Z 03005MPS 9999 BKN016 11/07 Q1025 NOSIG
Conditions at: ZSSS (SHANGHAI/HONGQIA, CN) observed 0430 UTC 26 February 2020
Temperature: 11.0°C (52°F)
Dewpoint: 7.0°C (45°F) [RH = 76%]
Pressure (altimeter): 30.27 inches Hg (1025.0 mb)
Winds: from the NNE (30 degrees) at 12 MPH (10 knots; 5.1 m/s)
Visibility: 6 or more miles (10+ km)
Ceiling: 1600 feet AGL
Clouds: broken clouds at 1600 feet AGL
Weather: no significant weather observed at this time

METAR text: ZSSS 260400Z 03005MPS 360V060 9999 BKN016 11/07 Q1025 NOSIG
Conditions at: ZSSS (SHANGHAI/HONGQIA, CN) observed 0400 UTC 26 February 2020
Temperature: 11.0°C (52°F)
Dewpoint: 7.0°C (45°F) [RH = 76%]
Pressure (altimeter): 30.27 inches Hg (1025.0 mb)
Winds: from the NNE (30 degrees) at 12 MPH (10 knots; 5.1 m/s)
Visibility: 6 or more miles (10+ km)
Ceiling: 1600 feet AGL
Clouds: broken clouds at 1600 feet AGL
Weather: no significant weather observed at this time

METAR text: ZSSS 260330Z 04005MPS 9999 BKN016 11/06 Q1025 NOSIG
Conditions at: ZSSS (SHANGHAI/HONGQIA, CN) observed 0330 UTC 26 February 2020
Temperature: 11.0°C (52°F)
Dewpoint: 6.0°C (43°F) [RH = 71%]
Pressure (altimeter): 30.27 inches Hg (1025.0 mb)
Winds: from the NE (40 degrees) at 12 MPH (10 knots; 5.1 m/s)
Visibility: 6 or more miles (10+ km)
Ceiling: 1600 feet AGL
Clouds: broken clouds at 1600 feet AGL
Weather: no significant weather observed at this time

METAR text: ZSSS 260300Z 04005MPS 9999 BKN016 11/06 Q1026 NOSIG
Conditions at: ZSSS (SHANGHAI/HONGQIA, CN) observed 0300 UTC 26 February 2020
Temperature: 11.0°C (52°F)
Dewpoint: 6.0°C (43°F) [RH = 71%]
Pressure (altimeter): 30.30 inches Hg (1026.0 mb)
Winds: from the NE (40 degrees) at 12 MPH (10 knots; 5.1 m/s)
Visibility: 6 or more miles (10+ km)
Ceiling: 1600 feet AGL
Clouds: broken clouds at 1600 feet AGL
Weather: no significant weather observed at this time

METAR text: ZSSS 260230Z 04005MPS 360V070 9999 BKN016 11/06 Q1026 NOSIG
Conditions at: ZSSS (SHANGHAI/HONGQIA, CN) observed 0230 UTC 26 February 2020
Temperature: 11.0°C (52°F)
Dewpoint: 6.0°C (43°F) [RH = 71%]
Pressure (altimeter): 30.30 inches Hg (1026.0 mb)
Winds: from the NE (40 degrees) at 12 MPH (10 knots; 5.1 m/s)
Visibility: 6 or more miles (10+ km)
Ceiling: 1600 feet AGL
Clouds: broken clouds at 1600 feet AGL
Weather: no significant weather observed at this time

METAR text: ZSSS 260200Z 02006MPS 9999 BKN016 11/06 Q1025 NOSIG
Conditions at: ZSSS (SHANGHAI/HONGQIA, CN) observed 0200 UTC 26 February 2020
Temperature: 11.0°C (52°F)
Dewpoint: 6.0°C (43°F) [RH = 71%]
Pressure (altimeter): 30.27 inches Hg (1025.0 mb)
Winds: from the NNE (20 degrees) at 14 MPH (12 knots; 6.2 m/s)
Visibility: 6 or more miles (10+ km)
Ceiling: 1600 feet AGL
Clouds: broken clouds at 1600 feet AGL
Weather: no significant weather observed at this time

METAR text: ZSSS 260130Z 03007MPS 9999 BKN015 11/06 Q1025 NOSIG
Conditions at: ZSSS (SHANGHAI/HONGQIA, CN) observed 0130 UTC 26 February 2020
Temperature: 11.0°C (52°F)
Dewpoint: 6.0°C (43°F) [RH = 71%]
Pressure (altimeter): 30.27 inches Hg (1025.0 mb)
Winds: from the NNE (30 degrees) at 16 MPH (14 knots; 7.2 m/s)
Visibility: 6 or more miles (10+ km)
Ceiling: 1500 feet AGL
Clouds: broken clouds at 1500 feet AGL
Weather: no significant weather observed at this time

METAR text: ZSSS 260100Z 03007MPS 9999 BKN014 10/06 Q1025 BECMG TL0210 BKN016
Conditions at: ZSSS (SHANGHAI/HONGQIA, CN) observed 0100 UTC 26 February 2020
Temperature: 10.0°C (50°F)
Dewpoint: 6.0°C (43°F) [RH = 76%]
Pressure (altimeter): 30.27 inches Hg (1025.0 mb)
Winds: from the NNE (30 degrees) at 16 MPH (14 knots; 7.2 m/s)
Visibility: 6 or more miles (10+ km)
Ceiling: 1400 feet AGL
Clouds: broken clouds at 1400 feet AGL
Weather: no significant weather observed at this time

METAR text: ZSSS 260030Z 02005MPS 9999 BKN014 10/06 Q1025 NOSIG
Conditions at: ZSSS (SHANGHAI/HONGQIA, CN) observed 0030 UTC 26 February 2020
Temperature: 10.0°C (50°F)
Dewpoint: 6.0°C (43°F) [RH = 76%]
Pressure (altimeter): 30.27 inches Hg (1025.0 mb)
Winds: from the NNE (20 degrees) at 12 MPH (10 knots; 5.1 m/s)
Visibility: 6 or more miles (10+ km)
Ceiling: 1400 feet AGL
Clouds: broken clouds at 1400 feet AGL
Weather: no significant weather observed at this time

METAR text: ZSSS 260000Z 02006MPS 9999 BKN014 10/06 Q1024 NOSIG
Conditions at: ZSSS (SHANGHAI/HONGQIA, CN) observed 0000 UTC 26 February 2020
Temperature: 10.0°C (50°F)
Dewpoint: 6.0°C (43°F) [RH = 76%]
Pressure (altimeter): 30.24 inches Hg (1024.0 mb)
Winds: from the NNE (20 degrees) at 14 MPH (12 knots; 6.2 m/s)
Visibility: 6 or more miles (10+ km)
Ceiling: 1400 feet AGL
Clouds: broken clouds at 1400 feet AGL
Weather: no significant weather observed at this time

METAR text: ZSSS 252330Z 04006MPS 9999 BKN013 10/06 Q1024 NOSIG
Conditions at: ZSSS (SHANGHAI/HONGQIA, CN) observed 2330 UTC 25 February 2020
Temperature: 10.0°C (50°F)
Dewpoint: 6.0°C (43°F) [RH = 76%]
Pressure (altimeter): 30.24 inches Hg (1024.0 mb)
Winds: from the NE (40 degrees) at 14 MPH (12 knots; 6.2 m/s)
Visibility: 6 or more miles (10+ km)
Ceiling: 1300 feet AGL
Clouds: broken clouds at 1300 feet AGL
Weather: no significant weather observed at this time

METAR text: ZSSS 252300Z 04007MPS 9999 BKN013 09/07 Q1024 NOSIG
Conditions at: ZSSS (SHANGHAI/HONGQIA, CN) observed 2300 UTC 25 February 2020
Temperature: 9.0°C (48°F)
Dewpoint: 7.0°C (45°F) [RH = 87%]
Pressure (altimeter): 30.24 inches Hg (1024.0 mb)
Winds: from the NE (40 degrees) at 16 MPH (14 knots; 7.2 m/s)
Visibility: 6 or more miles (10+ km)
Ceiling: 1300 feet AGL
Clouds: broken clouds at 1300 feet AGL
Weather: no significant weather observed at this time

METAR text: ZSSS 252230Z 03005MPS 9999 BKN011 10/07 Q1023 NOSIG
Conditions at: ZSSS (SHANGHAI/HONGQIA, CN) observed 2230 UTC 25 February 2020
Temperature: 10.0°C (50°F)
Dewpoint: 7.0°C (45°F) [RH = 82%]
Pressure (altimeter): 30.21 inches Hg (1023.0 mb)
Winds: from the NNE (30 degrees) at 12 MPH (10 knots; 5.1 m/s)
Visibility: 6 or more miles (10+ km)
Ceiling: 1100 feet AGL
Clouds: broken clouds at 1100 feet AGL
Weather: no significant weather observed at this time

METAR text: ZSSS 252200Z 04006MPS 9999 BKN011 10/07 Q1023 NOSIG
Conditions at: ZSSS (SHANGHAI/HONGQIA, CN) observed 2200 UTC 25 February 2020
Temperature: 10.0°C (50°F)
Dewpoint: 7.0°C (45°F) [RH = 82%]
Pressure (altimeter): 30.21 inches Hg (1023.0 mb)
Winds: from the NE (40 degrees) at 14 MPH (12 knots; 6.2 m/s)
Visibility: 6 or more miles (10+ km)
Ceiling: 1100 feet AGL
Clouds: broken clouds at 1100 feet AGL
Weather: no significant weather observed at this time

METAR text: ZSSS 252130Z 03006MPS 9999 BKN011 10/07 Q1023 NOSIG
Conditions at: ZSSS (SHANGHAI/HONGQIA, CN) observed 2130 UTC 25 February 2020
Temperature: 10.0°C (50°F)
Dewpoint: 7.0°C (45°F) [RH = 82%]
Pressure (altimeter): 30.21 inches Hg (1023.0 mb)
Winds: from the NNE (30 degrees) at 14 MPH (12 knots; 6.2 m/s)
Visibility: 6 or more miles (10+ km)
Ceiling: 1100 feet AGL
Clouds: broken clouds at 1100 feet AGL
Weather: no significant weather observed at this time

METAR text: ZSSS 252100Z 03005MPS 9999 BKN012 10/07 Q1022 NOSIG
Conditions at: ZSSS (SHANGHAI/HONGQIA, CN) observed 2100 UTC 25 February 2020
Temperature: 10.0°C (50°F)
Dewpoint: 7.0°C (45°F) [RH = 82%]
Pressure (altimeter): 30.18 inches Hg (1022.0 mb)
Winds: from the NNE (30 degrees) at 12 MPH (10 knots; 5.1 m/s)
Visibility: 6 or more miles (10+ km)
Ceiling: 1200 feet AGL
Clouds: broken clouds at 1200 feet AGL
Weather: no significant weather observed at this time

METAR text: ZSSS 252030Z 03006MPS 9999 BKN011 10/07 Q1022 NOSIG
Conditions at: ZSSS (SHANGHAI/HONGQIA, CN) observed 2030 UTC 25 February 2020
Temperature: 10.0°C (50°F)
Dewpoint: 7.0°C (45°F) [RH = 82%]
Pressure (altimeter): 30.18 inches Hg (1022.0 mb)
Winds: from the NNE (30 degrees) at 14 MPH (12 knots; 6.2 m/s)
Visibility: 6 or more miles (10+ km)
Ceiling: 1100 feet AGL
Clouds: broken clouds at 1100 feet AGL
Weather: no significant weather observed at this time

Forecast for: ZSSS (SHANGHAI/HONGQIA, CN)
Text: TAF ZSSS 270309Z 2706/2806 08004MPS 6000 BKN020 TX13/2706Z TN09/2721Z
Forecast period: 0600 to 1200 UTC 27 February 2020
Forecast type: FROM: standard forecast or significant change
Winds: from the E (80 degrees) at 9 MPH (8 knots; 4.1 m/s)
Visibility: 4 miles (6 km)
Ceiling: 2000 feet AGL
Clouds: broken clouds at 2000 feet AGL
Weather: no significant weather forecast for this period
Text: BECMG 2712/2714 12004MPS
Forecast period: 1200 UTC 27 February 2020 to 0600 UTC 28 February 2020
Forecast type: BECOMING: Conditions expected to become as follows by 1400 UTC 27 February 2020
Winds: from the ESE (120 degrees) at 9 MPH (8 knots; 4.1 m/s)
Visibility: 4 miles (6 km)
Ceiling: 2000 feet AGL
Clouds: broken clouds at 2000 feet AGL
Weather: no significant weather forecast for this period